Time;durP1;ratioP1;P1;durP2;ratioP2;P2;SDS_P1;SDS_P2;PMS_P1;PMS_P2;Temp;Humidity;BMP_temperature;BMP_pressure;BME280_temperature;BME280_humidity;BME280_pressure;Samples;Min_cycle;Max_cycle;Signal;HPM_P1;HPM_P2
2022/12/28 00:00:34;;;;;;;;;;;;;;;12.61;74.25;101106.13;1056292;28;656;-68
2022/12/28 00:01:25;;;;;;;;;;;;;;;12.62;74.77;101110.50;1059948;27;1217;-68
2022/12/28 00:02:15;;;;;;;;;;;;;;;12.61;74.02;101107.94;1060732;27;654;-69
2022/12/28 00:03:05;;;;;;;;;;;;;;;12.60;74.56;101107.09;1056685;28;1178;-68
2022/12/28 00:03:56;;;;;;;;;;;;;;;12.60;73.98;101101.75;1056213;28;700;-69
2022/12/28 00:04:46;;;;;;;;;;;;;;;12.60;74.84;101101.75;1052190;28;980;-68
2022/12/28 00:05:37;;;;;;;;;;;;;;;12.59;74.93;101100.03;1052080;28;618;-68
2022/12/28 00:06:27;;;;;;;;;;;;;;;12.60;73.96;101101.75;1052211;28;695;-68
2022/12/28 00:07:18;;;;;;;;;;;;;;;12.59;73.95;101092.00;1051983;28;711;-69
2022/12/28 00:08:08;;;;;;;;;;;;;;;12.59;73.93;101091.16;1055968;28;1146;-69
2022/12/28 00:08:59;;;;;;;;;;;;;;;12.58;74.08;101086.75;1056680;28;700;-69
2022/12/28 00:09:49;;;;;;;;;;;;;;;12.60;74.24;101080.34;1052992;28;1488;-69
2022/12/28 00:10:39;;;;;;;;;;;;;;;12.58;74.77;101068.91;1052290;28;638;-69
2022/12/28 00:11:30;;;;;;;;;;;;;;;12.59;74.92;101078.63;1051949;28;682;-68
2022/12/28 00:12:20;;;;;;;;;;;;;;;12.61;74.75;101065.16;1052264;28;1222;-68
2022/12/28 00:13:11;;;;;;;;;;;;;;;12.60;73.99;101058.97;1049147;28;999;-68
2022/12/28 00:14:01;;;;;;;;;;;;;;;12.60;74.21;101058.97;1053303;28;1265;-69
2022/12/28 00:14:52;;;;;;;;;;;;;;;12.59;73.78;101056.41;1052501;28;735;-69
2022/12/28 00:15:42;;;;;;;;;;;;;;;12.58;74.83;101060.88;1056177;28;621;-69
2022/12/28 00:16:32;;;;;;;;;;;;;;;12.57;74.12;101048.47;1056338;28;669;-69
2022/12/28 00:17:23;;;;;;;;;;;;;;;12.59;74.39;101053.72;1055792;28;1278;-69
2022/12/28 00:18:13;;;;;;;;;;;;;;;12.58;74.27;101054.69;1060249;27;672;-69
2022/12/28 00:19:04;;;;;;;;;;;;;;;12.58;74.70;101054.69;1060495;27;1166;-69
2022/12/28 00:19:54;;;;;;;;;;;;;;;12.58;74.62;101052.88;1056653;28;1130;-69
2022/12/28 00:20:44;;;;;;;;;;;;;;;12.56;74.85;101057.47;1056306;28;1528;-69
2022/12/28 00:21:35;;;;;;;;;;;;;;;12.55;74.72;101052.22;1056022;28;1146;-69
2022/12/28 00:22:25;;;;;;;;;;;;;;;12.55;74.94;101044.19;1057437;28;773;-69
2022/12/28 00:23:16;;;;;;;;;;;;;;;12.54;73.97;101035.31;1053078;28;645;-68
2022/12/28 00:24:06;;;;;;;;;;;;;;;12.53;74.53;101036.31;1052093;28;1591;-69
2022/12/28 00:24:57;;;;;;;;;;;;;;;12.52;74.50;101030.13;1056605;28;716;-69
2022/12/28 00:25:47;;;;;;;;;;;;;;;12.53;74.90;101033.66;1052592;28;1027;-68
2022/12/28 00:26:37;;;;;;;;;;;;;;;12.53;74.42;101036.31;1053329;28;645;-69
2022/12/28 00:27:28;;;;;;;;;;;;;;;12.52;74.22;101029.25;1051426;28;638;-69
2022/12/28 00:28:18;;;;;;;;;;;;;;;12.52;74.98;101042.63;1052600;28;1500;-69
2022/12/28 00:29:10;;;;;;;;;;;;;;;12.52;74.37;101035.47;1056932;28;692;-69
2022/12/28 00:30:01;;;;;;;;;;;;;;;12.52;75.00;101023.91;1057009;28;1511;-69
2022/12/28 00:30:52;;;;;;;;;;;;;;;12.52;74.12;101013.22;1053157;28;641;-69
2022/12/28 00:31:44;;;;;;;;;;;;;;;12.50;74.99;101016.00;1061748;27;1179;-69
2022/12/28 00:32:34;;;;;;;;;;;;;;;12.54;74.71;101013.13;1060909;27;675;-68
2022/12/28 00:33:25;;;;;;;;;;;;;;;12.54;74.62;101016.63;1054673;28;657;-68
2022/12/28 00:34:15;;;;;;;;;;;;;;;12.53;74.43;101009.59;1055998;28;1130;-69
2022/12/28 00:35:06;;;;;;;;;;;;;;;12.53;73.81;101006.91;1057211;28;689;-68
2022/12/28 00:35:56;;;;;;;;;;;;;;;12.51;74.84;101009.69;1054065;28;1411;-69
2022/12/28 00:36:46;;;;;;;;;;;;;;;12.51;74.31;101006.16;1052138;28;773;-69
2022/12/28 00:37:37;;;;;;;;;;;;;;;12.52;74.66;101005.19;1053977;28;1111;-69
2022/12/28 00:38:27;;;;;;;;;;;;;;;12.50;74.00;100993.75;1057319;28;725;-69
2022/12/28 00:39:18;;;;;;;;;;;;;;;12.51;74.01;100998.16;1055894;28;1154;-69
2022/12/28 00:40:08;;;;;;;;;;;;;;;12.51;74.65;100990.97;1053148;28;708;-69
2022/12/28 00:40:59;;;;;;;;;;;;;;;12.54;73.80;100999.75;1052326;28;763;-69
2022/12/28 00:41:49;;;;;;;;;;;;;;;12.54;74.71;101005.91;1052112;28;645;-69
2022/12/28 00:42:39;;;;;;;;;;;;;;;12.54;74.17;100994.41;1056556;28;723;-69
2022/12/28 00:43:30;;;;;;;;;;;;;;;12.54;74.89;100997.91;1056560;28;1091;-69
2022/12/28 00:44:20;;;;;;;;;;;;;;;12.53;74.63;100993.53;1056128;28;1240;-69
2022/12/28 00:45:11;;;;;;;;;;;;;;;12.53;73.91;100993.53;1053102;28;658;-69
2022/12/28 00:46:01;;;;;;;;;;;;;;;12.52;74.65;100986.50;1057338;27;1142;-69
2022/12/28 00:46:52;;;;;;;;;;;;;;;12.53;74.53;101004.25;1057556;28;676;-69
2022/12/28 00:47:42;;;;;;;;;;;;;;;12.51;74.53;100998.16;1055321;28;1166;-69
2022/12/28 00:48:32;;;;;;;;;;;;;;;12.51;74.71;100990.97;1056185;28;662;-69
2022/12/28 00:49:23;;;;;;;;;;;;;;;12.50;73.93;100988.41;1051830;28;713;-69
2022/12/28 00:50:13;;;;;;;;;;;;;;;12.51;73.93;100990.13;1052005;28;650;-69
2022/12/28 00:51:04;;;;;;;;;;;;;;;12.52;74.82;100994.50;1052327;28;713;-69
2022/12/28 00:51:54;;;;;;;;;;;;;;;12.52;74.60;100990.03;1055403;28;1186;-69
2022/12/28 00:52:45;;;;;;;;;;;;;;;12.51;74.04;100995.47;1055323;28;701;-69
2022/12/28 00:53:35;;;;;;;;;;;;;;;12.51;74.14;100980.28;1055955;28;1157;-69
2022/12/28 00:54:25;;;;;;;;;;;;;;;12.51;74.51;100987.44;1055731;28;737;-69
2022/12/28 00:55:16;;;;;;;;;;;;;;;12.50;74.80;100985.75;1055850;28;1138;-69
2022/12/28 00:56:06;;;;;;;;;;;;;;;12.52;74.52;100986.50;1053702;28;1496;-69
2022/12/28 00:56:57;;;;;;;;;;;;;;;12.51;74.84;100968.75;1054826;28;1214;-69
2022/12/28 00:57:47;;;;;;;;;;;;;;;12.51;73.96;100976.75;1053593;28;1028;-69
2022/12/28 00:58:38;;;;;;;;;;;;;;;12.52;74.91;100975.78;1053550;28;1957;-69
2022/12/28 00:59:28;;;;;;;;;;;;;;;12.52;74.96;100970.44;1051948;28;1097;-69
2022/12/28 01:00:18;;;;;;;;;;;;;;;12.51;74.83;100971.41;1052584;28;1528;-69
2022/12/28 01:01:09;;;;;;;;;;;;;;;12.51;74.96;100971.41;1052410;28;1575;-69
2022/12/28 01:01:59;;;;;;;;;;;;;;;12.51;74.87;100974.09;1052076;28;645;-69
2022/12/28 01:02:50;;;;;;;;;;;;;;;12.51;74.76;100972.28;1052366;28;697;-69
2022/12/28 01:03:40;;;;;;;;;;;;;;;12.49;74.94;100976.00;1055435;28;1082;-69
2022/12/28 01:04:31;;;;;;;;;;;;;;;12.49;74.83;100966.16;1056353;28;1157;-69
2022/12/28 01:05:21;;;;;;;;;;;;;;;12.48;74.72;100968.94;1057168;28;646;-69
2022/12/28 01:06:11;;;;;;;;;;;;;;;12.49;74.83;100963.50;1057073;28;1710;-69
2022/12/28 01:07:02;;;;;;;;;;;;;;;12.49;75.01;100957.28;1053969;28;712;-69
2022/12/28 01:07:52;;;;;;;;;;;;;;;12.49;74.13;100952.81;1056079;28;1158;-69
2022/12/28 01:08:43;;;;;;;;;;;;;;;12.48;74.34;100952.91;1057174;28;771;-69
2022/12/28 01:09:33;;;;;;;;;;;;;;;12.48;75.09;100960.94;1053579;28;1516;-69
2022/12/28 01:10:24;;;;;;;;;;;;;;;12.47;74.05;100943.19;1054982;28;1206;-69
2022/12/28 01:11:14;;;;;;;;;;;;;;;12.47;75.08;100930.69;1055624;28;1658;-69
2022/12/28 01:12:04;;;;;;;;;;;;;;;12.49;74.77;100933.25;1060089;28;708;-69
2022/12/28 01:12:55;;;;;;;;;;;;;;;12.48;74.85;100935.06;1060399;28;1193;-69
2022/12/28 01:13:45;;;;;;;;;;;;;;;12.49;73.91;100941.25;1052203;28;1105;-69
2022/12/28 01:14:36;;;;;;;;;;;;;;;12.49;74.55;100943.94;1047386;28;672;-69
2022/12/28 01:15:26;;;;;;;;;;;;;;;12.49;74.50;100943.94;1054052;28;1134;-69
2022/12/28 01:16:17;;;;;;;;;;;;;;;12.49;74.95;100938.59;1057227;28;719;-69
2022/12/28 01:17:07;;;;;;;;;;;;;;;12.49;74.22;100942.13;1054865;28;1055;-69
2022/12/28 01:17:58;;;;;;;;;;;;;;;12.50;74.06;100942.97;1055767;28;668;-69
2022/12/28 01:18:48;;;;;;;;;;;;;;;12.48;75.03;100932.38;1049668;28;1977;-69
2022/12/28 01:19:39;;;;;;;;;;;;;;;12.48;74.79;100934.19;1047203;28;765;-69
2022/12/28 01:20:29;;;;;;;;;;;;;;;12.48;74.48;100932.38;1055736;28;614;-69
2022/12/28 01:21:19;;;;;;;;;;;;;;;12.50;74.49;100929.59;1051876;28;1381;-69
2022/12/28 01:22:10;;;;;;;;;;;;;;;12.49;75.08;100934.09;1051693;28;630;-69
2022/12/28 01:23:00;;;;;;;;;;;;;;;12.51;74.58;100924.16;1052913;28;1154;-69
2022/12/28 01:23:51;;;;;;;;;;;;;;;12.49;75.07;100925.22;1055974;28;649;-69
2022/12/28 01:24:41;;;;;;;;;;;;;;;12.50;74.99;100926.94;1055093;28;1249;-69
2022/12/28 01:25:32;;;;;;;;;;;;;;;12.51;74.27;100921.47;1056624;28;676;-69
2022/12/28 01:26:22;;;;;;;;;;;;;;;12.51;74.86;100926.81;1052561;28;1422;-69
2022/12/28 01:27:12;;;;;;;;;;;;;;;12.50;75.02;100918.91;1052633;28;1471;-69
2022/12/28 01:28:03;;;;;;;;;;;;;;;12.49;74.93;100925.22;1051771;28;654;-69
2022/12/28 01:28:53;;;;;;;;;;;;;;;12.49;74.83;100918.06;1053127;28;696;-69
2022/12/28 01:29:44;;;;;;;;;;;;;;;12.49;75.10;100907.38;1051657;28;834;-69
2022/12/28 01:30:34;;;;;;;;;;;;;;;12.49;74.25;100911.84;1052426;28;652;-69
2022/12/28 01:31:24;;;;;;;;;;;;;;;12.49;75.03;100911.84;1054605;28;1070;-69
2022/12/28 01:32:15;;;;;;;;;;;;;;;12.49;75.11;100917.19;1055322;28;774;-69
2022/12/28 01:33:05;;;;;;;;;;;;;;;12.47;75.15;100903.94;1054129;28;1047;-69
2022/12/28 01:33:56;;;;;;;;;;;;;;;12.48;74.56;100897.63;1057194;28;661;-68
2022/12/28 01:34:46;;;;;;;;;;;;;;;12.47;74.39;100903.09;1054542;28;1437;-69
2022/12/28 01:35:37;;;;;;;;;;;;;;;12.48;74.18;100888.75;1052206;28;1718;-68
2022/12/28 01:36:27;;;;;;;;;;;;;;;12.48;74.54;100888.75;1055740;28;1150;-69
2022/12/28 01:37:18;;;;;;;;;;;;;;;12.48;74.50;100902.13;1055406;28;1146;-69
2022/12/28 01:38:08;;;;;;;;;;;;;;;12.49;74.85;100902.03;1052149;28;760;-68
2022/12/28 01:38:58;;;;;;;;;;;;;;;12.48;74.24;100904.81;1054401;28;1951;-68
2022/12/28 01:39:49;;;;;;;;;;;;;;;12.49;74.96;100895.81;1055325;28;1150;-67
2022/12/28 01:40:39;;;;;;;;;;;;;;;12.49;74.53;100903.84;1053563;28;693;-67
2022/12/28 01:41:30;;;;;;;;;;;;;;;12.48;74.61;100905.66;1056427;28;719;-67
2022/12/28 01:42:20;;;;;;;;;;;;;;;12.48;75.10;100894.97;1057163;28;710;-68
2022/12/28 01:43:11;;;;;;;;;;;;;;;12.46;74.28;100896.88;1054271;28;1539;-67
2022/12/28 01:44:01;;;;;;;;;;;;;;;12.49;74.45;100895.81;1055138;28;940;-67
2022/12/28 01:44:51;;;;;;;;;;;;;;;12.48;74.17;100894.09;1055168;28;1650;-68
2022/12/28 01:45:42;;;;;;;;;;;;;;;12.48;74.25;100884.28;1052323;28;650;-68
2022/12/28 01:46:32;;;;;;;;;;;;;;;12.47;74.63;100892.41;1052824;28;1198;-68
2022/12/28 01:47:23;;;;;;;;;;;;;;;12.48;74.81;100872.72;1055101;28;774;-68
2022/12/28 01:48:13;;;;;;;;;;;;;;;12.48;74.93;100883.41;1055785;28;1198;-68
2022/12/28 01:49:03;;;;;;;;;;;;;;;12.51;74.64;100877.84;1053089;28;700;-68
2022/12/28 01:49:54;;;;;;;;;;;;;;;12.46;74.63;100883.53;1052106;28;1254;-67
2022/12/28 01:50:44;;;;;;;;;;;;;;;12.48;74.55;100889.63;1053108;28;684;-68
2022/12/28 01:51:35;;;;;;;;;;;;;;;12.49;74.06;100885.13;1055620;28;1203;-67
2022/12/28 01:52:25;;;;;;;;;;;;;;;12.50;74.29;100886.84;1053410;28;1091;-68
2022/12/28 01:53:16;;;;;;;;;;;;;;;12.46;75.08;100880.84;1053189;28;651;-68
2022/12/28 01:54:06;;;;;;;;;;;;;;;12.48;74.44;100888.75;1048975;28;693;-68
2022/12/28 01:54:56;;;;;;;;;;;;;;;12.48;75.19;100878.94;1056525;28;766;-68
2022/12/28 01:55:47;;;;;;;;;;;;;;;12.50;74.36;100876.16;1054413;28;1313;-68
2022/12/28 01:56:37;;;;;;;;;;;;;;;12.47;74.42;100871.03;1053122;28;704;-67
2022/12/28 01:57:28;;;;;;;;;;;;;;;12.49;74.95;100874.44;1053456;28;625;-67
2022/12/28 01:58:18;;;;;;;;;;;;;;;12.46;75.08;100872.84;1054099;28;1767;-67
2022/12/28 01:59:09;;;;;;;;;;;;;;;12.45;74.45;100859.59;1052053;28;633;-67
2022/12/28 01:59:59;;;;;;;;;;;;;;;12.45;74.58;100863.09;1054983;28;901;-67
2022/12/28 02:00:49;;;;;;;;;;;;;;;12.47;75.04;100865.66;1058003;28;653;-67
2022/12/28 02:01:40;;;;;;;;;;;;;;;12.46;75.26;100864.81;1056005;28;709;-67
2022/12/28 02:02:30;;;;;;;;;;;;;;;12.46;75.20;100859.47;1056702;28;661;-68
2022/12/28 02:03:21;;;;;;;;;;;;;;;12.46;75.09;100863.97;1056981;28;779;-67
2022/12/28 02:04:11;;;;;;;;;;;;;;;12.45;74.45;100870.28;1052521;28;690;-68
2022/12/28 02:05:01;;;;;;;;;;;;;;;12.45;74.77;100851.56;1052092;28;711;-68
2022/12/28 02:05:52;;;;;;;;;;;;;;;12.46;74.04;100847.94;1053664;28;559;-67
2022/12/28 02:06:42;;;;;;;;;;;;;;;12.45;74.79;100862.25;1053150;28;725;-67
2022/12/28 02:07:33;;;;;;;;;;;;;;;12.44;75.16;100852.53;1053666;28;665;-67
2022/12/28 02:08:23;;;;;;;;;;;;;;;12.44;74.25;100860.53;1053757;28;656;-67
2022/12/28 02:09:14;;;;;;;;;;;;;;;12.44;75.20;100850.72;1052883;28;657;-67
2022/12/28 02:10:04;;;;;;;;;;;;;;;12.45;74.54;100841.72;1054335;28;1133;-67
2022/12/28 02:10:54;;;;;;;;;;;;;;;12.46;74.48;100835.41;1056392;28;654;-67
2022/12/28 02:11:45;;;;;;;;;;;;;;;12.44;74.47;100823.13;1053223;28;1095;-67
2022/12/28 02:12:35;;;;;;;;;;;;;;;12.45;74.28;100825.69;1056400;28;673;-67
2022/12/28 02:13:26;;;;;;;;;;;;;;;12.47;74.56;100828.25;1055343;28;1055;-67
2022/12/28 02:14:16;;;;;;;;;;;;;;;12.43;75.25;100824.94;1055151;28;1627;-67
2022/12/28 02:15:07;;;;;;;;;;;;;;;12.43;74.19;100837.44;1056915;28;693;-67
2022/12/28 02:15:57;;;;;;;;;;;;;;;12.41;75.09;100823.34;1055895;28;1310;-67
2022/12/28 02:16:47;;;;;;;;;;;;;;;12.41;75.00;100837.56;1056806;28;637;-67
2022/12/28 02:17:38;;;;;;;;;;;;;;;12.42;75.24;100825.06;1052288;28;693;-67
2022/12/28 02:18:28;;;;;;;;;;;;;;;12.45;74.77;100835.53;1052439;28;680;-67
2022/12/28 02:19:19;;;;;;;;;;;;;;;12.44;74.21;100828.47;1052253;28;637;-67
2022/12/28 02:20:09;;;;;;;;;;;;;;;12.45;75.14;100824.84;1053909;28;1155;-67
2022/12/28 02:21:00;;;;;;;;;;;;;;;12.44;74.47;100823.13;1056093;28;1539;-67
2022/12/28 02:21:50;;;;;;;;;;;;;;;12.45;74.14;100830.19;1056545;28;697;-67
2022/12/28 02:22:40;;;;;;;;;;;;;;;12.47;74.28;100828.25;1056462;28;729;-67
2022/12/28 02:23:31;;;;;;;;;;;;;;;12.46;74.20;100826.53;1055719;28;1755;-67
2022/12/28 02:24:21;;;;;;;;;;;;;;;12.47;74.04;100829.09;1054231;28;1012;-67
2022/12/28 02:25:12;;;;;;;;;;;;;;;12.47;74.13;100823.75;1055879;28;630;-67
2022/12/28 02:26:02;;;;;;;;;;;;;;;12.48;74.59;100832.63;1054199;28;641;-67
2022/12/28 02:26:53;;;;;;;;;;;;;;;12.49;74.13;100821.84;1052640;28;673;-67
2022/12/28 02:27:44;;;;;;;;;;;;;;;12.49;74.83;100832.53;1056358;28;1496;-67
2022/12/28 02:28:34;;;;;;;;;;;;;;;12.48;74.21;100821.94;1056492;28;1154;-67
2022/12/28 02:29:24;;;;;;;;;;;;;;;12.46;74.27;100822.06;1053650;28;721;-66
2022/12/28 02:30:15;;;;;;;;;;;;;;;12.48;74.78;100830.81;1057357;28;1182;-67
2022/12/28 02:31:05;;;;;;;;;;;;;;;12.47;74.75;100828.25;1054585;28;1102;-67
2022/12/28 02:31:56;;;;;;;;;;;;;;;12.47;74.80;100830.94;1053481;28;641;-66
2022/12/28 02:32:46;;;;;;;;;;;;;;;12.47;74.13;100834.47;1056409;28;1221;-67
2022/12/28 02:33:36;;;;;;;;;;;;;;;12.46;74.07;100827.41;1057837;28;772;-67
2022/12/28 02:34:27;;;;;;;;;;;;;;;12.47;74.57;100836.28;1053863;28;1608;-67
2022/12/28 02:35:17;;;;;;;;;;;;;;;12.43;75.20;100824.94;1055435;28;1092;-67
2022/12/28 02:36:08;;;;;;;;;;;;;;;12.45;74.54;100831.03;1056065;28;1718;-67
2022/12/28 02:36:58;;;;;;;;;;;;;;;12.45;75.04;100815.00;1055361;28;665;-67
2022/12/28 02:37:49;;;;;;;;;;;;;;;12.44;74.59;100817.78;1056350;28;688;-67
2022/12/28 02:38:39;;;;;;;;;;;;;;;12.45;74.57;100830.19;1055986;28;860;-67
2022/12/28 02:39:29;;;;;;;;;;;;;;;12.44;74.04;100812.44;1056606;28;708;-67
2022/12/28 02:40:20;;;;;;;;;;;;;;;12.42;75.01;100809.03;1052273;28;659;-67
2022/12/28 02:41:10;;;;;;;;;;;;;;;12.45;74.30;100824.84;1054692;28;1186;-67
2022/12/28 02:42:01;;;;;;;;;;;;;;;12.45;74.88;100812.31;1053471;28;626;-67
2022/12/28 02:42:52;;;;;;;;;;;;;;;12.44;74.54;100812.44;1056415;28;999;-67
2022/12/28 02:43:42;;;;;;;;;;;;;;;12.44;75.05;100796.41;1053567;28;1610;-67
2022/12/28 02:50:22;;;;;;;;;;;;;;;12.47;74.54;100814.88;1048945;28;727;-67
2022/12/28 02:51:13;;;;;;;;;;;;;;;12.47;74.82;100810.41;1047814;28;1318;-67
2022/12/28 02:52:04;;;;;;;;;;;;;;;12.45;74.88;100803.47;1049420;28;1178;-67
2022/12/28 02:52:54;;;;;;;;;;;;;;;12.46;74.43;100802.50;1051210;28;724;-67
2022/12/28 02:53:44;;;;;;;;;;;;;;;12.47;74.44;100804.19;1045202;28;1620;-67
2022/12/28 02:56:53;;;;;;;;;;;;;;;12.45;74.47;100806.13;1050789;28;1158;-67
2022/12/28 02:57:43;;;;;;;;;;;;;;;12.45;74.54;100803.47;1046588;28;956;-67
2022/12/28 02:58:34;;;;;;;;;;;;;;;12.46;74.04;100797.16;1052830;28;1115;-67
2022/12/28 02:59:24;;;;;;;;;;;;;;;12.44;74.54;100797.25;1050032;28;1703;-67
2022/12/28 03:00:14;;;;;;;;;;;;;;;12.43;74.48;100800.03;1044733;28;1018;-67
2022/12/28 03:01:05;;;;;;;;;;;;;;;12.44;74.23;100796.41;1047078;28;746;-67
2022/12/28 03:01:55;;;;;;;;;;;;;;;12.45;74.76;100800.78;1045210;28;637;-67
2022/12/28 03:02:46;;;;;;;;;;;;;;;12.45;74.65;100790.09;1050753;28;1032;-67
2022/12/28 03:03:36;;;;;;;;;;;;;;;12.44;74.33;100796.41;1052997;28;924;-68
2022/12/28 03:04:27;;;;;;;;;;;;;;;12.42;74.79;100795.66;1045926;28;1151;-67
2022/12/28 03:05:17;;;;;;;;;;;;;;;12.43;74.26;100784.00;1052967;28;707;-67
2022/12/28 03:08:25;;;;;;;;;;;;;;;12.41;74.62;100780.59;1048707;28;1516;-67
2022/12/28 03:09:16;;;;;;;;;;;;;;;12.39;74.25;100790.53;1050167;28;1096;-68
2022/12/28 03:10:06;;;;;;;;;;;;;;;12.40;74.18;100789.56;1052984;28;613;-67
2022/12/28 03:10:57;;;;;;;;;;;;;;;12.41;74.01;100785.94;1045664;28;1627;-67
2022/12/28 03:11:47;;;;;;;;;;;;;;;12.41;74.50;100786.78;1045175;28;712;-67
2022/12/28 03:12:37;;;;;;;;;;;;;;;12.42;74.68;100791.16;1045751;28;745;-67
2022/12/28 03:13:43;;;;;;;;;;;;;;;12.43;74.54;100781.34;1045193;28;1128;-67
2022/12/28 03:14:34;;;;;;;;;;;;;;;12.44;74.06;100773.19;1049994;28;692;-67
2022/12/28 03:15:30;;;;;;;;;;;;;;;12.41;74.28;100773.41;1051019;28;960;-67
2022/12/28 03:16:20;;;;;;;;;;;;;;;12.41;75.02;100783.25;1052949;28;681;-67
2022/12/28 03:31:05;;;;;;;;;;;;;;;12.41;74.79;100767.22;1052171;28;1091;-67
2022/12/28 03:31:56;;;;;;;;;;;;;;;12.37;74.36;100771.06;1053987;28;660;-67
2022/12/28 03:32:46;;;;;;;;;;;;;;;12.37;74.36;100765.75;1052843;28;721;-67
2022/12/28 03:33:37;;;;;;;;;;;;;;;12.37;74.26;100768.41;1057485;28;1142;-67
2022/12/28 03:34:27;;;;;;;;;;;;;;;12.38;74.45;100776.31;1052650;28;1795;-66
2022/12/28 03:35:17;;;;;;;;;;;;;;;12.38;73.98;100775.47;1053152;28;1159;-67
2022/12/28 03:36:08;;;;;;;;;;;;;;;12.39;74.03;100771.81;1055091;28;1717;-67
2022/12/28 03:36:58;;;;;;;;;;;;;;;12.38;73.91;100770.13;1052721;28;1500;-67
2022/12/28 03:37:49;;;;;;;;;;;;;;;12.38;74.62;100770.97;1052823;28;1373;-67
2022/12/28 03:38:39;;;;;;;;;;;;;;;12.37;74.07;100760.38;1052102;28;685;-67
2022/12/28 03:39:29;;;;;;;;;;;;;;;12.38;74.80;100760.28;1056066;28;702;-67
2022/12/28 03:40:20;;;;;;;;;;;;;;;12.38;74.37;100767.44;1056532;28;712;-67
2022/12/28 03:41:10;;;;;;;;;;;;;;;12.39;74.48;100762.00;1056143;28;1027;-67
2022/12/28 03:44:19;;;;;;;;;;;;;;;12.41;74.80;100756.53;1056231;28;702;-68
2022/12/28 03:45:10;;;;;;;;;;;;;;;12.42;74.53;100760.91;1052189;28;881;-68
2022/12/28 03:46:00;;;;;;;;;;;;;;;12.40;74.05;100758.34;1049647;28;1289;-67
2022/12/28 03:46:50;;;;;;;;;;;;;;;12.41;74.08;100743.16;1052432;28;704;-67
2022/12/28 03:47:41;;;;;;;;;;;;;;;12.40;74.84;100739.66;1053980;28;996;-68
2022/12/28 03:48:31;;;;;;;;;;;;;;;12.41;74.28;100745.84;1055813;28;653;-67
2022/12/28 03:49:22;;;;;;;;;;;;;;;12.41;74.96;100748.50;1054094;28;1095;-68
2022/12/28 03:50:12;;;;;;;;;;;;;;;12.41;74.48;100737.81;1052359;28;662;-67
2022/12/28 03:51:03;;;;;;;;;;;;;;;12.40;73.85;100739.66;1055199;28;1538;-67
2022/12/28 03:51:53;;;;;;;;;;;;;;;12.40;74.61;100746.81;1052223;28;1714;-67
2022/12/28 03:52:43;;;;;;;;;;;;;;;12.41;74.01;100745.84;1053408;28;712;-67
2022/12/28 03:53:34;;;;;;;;;;;;;;;12.41;74.72;100732.47;1052760;28;693;-67
2022/12/28 03:54:24;;;;;;;;;;;;;;;12.42;74.73;100739.53;1051975;28;630;-67
2022/12/28 03:55:15;;;;;;;;;;;;;;;12.42;74.34;100745.72;1052722;28;708;-67
2022/12/28 03:56:05;;;;;;;;;;;;;;;12.41;73.85;100744.03;1051902;28;708;-67
2022/12/28 03:56:55;;;;;;;;;;;;;;;12.40;74.10;100736.97;1055181;28;1178;-67
2022/12/28 03:57:46;;;;;;;;;;;;;;;12.42;73.88;100736.88;1055775;28;1632;-67
2022/12/28 03:58:36;;;;;;;;;;;;;;;12.41;74.21;100729.81;1059953;27;1208;-67
2022/12/28 03:59:27;;;;;;;;;;;;;;;12.40;74.01;100742.31;1060575;27;1658;-68
2022/12/28 04:00:17;;;;;;;;;;;;;;;12.41;74.92;100736.00;1054721;28;709;-67
2022/12/28 04:01:07;;;;;;;;;;;;;;;12.40;73.96;100738.78;1052796;28;657;-67
2022/12/28 04:01:58;;;;;;;;;;;;;;;12.40;75.02;100736.13;1052521;28;652;-67
2022/12/28 04:02:48;;;;;;;;;;;;;;;12.39;74.34;100737.09;1056264;28;681;-67
2022/12/28 04:03:39;;;;;;;;;;;;;;;12.41;74.82;100736.00;1057422;28;756;-67
2022/12/28 04:04:29;;;;;;;;;;;;;;;12.41;74.62;100741.34;1051945;28;642;-67
2022/12/28 04:05:20;;;;;;;;;;;;;;;12.41;74.32;100737.81;1055600;28;1095;-67
2022/12/28 04:06:10;;;;;;;;;;;;;;;12.41;74.36;100727.13;1054608;28;1631;-67
2022/12/28 04:07:01;;;;;;;;;;;;;;;12.40;74.63;100728.09;1052236;28;670;-67
2022/12/28 04:07:51;;;;;;;;;;;;;;;12.43;74.88;100739.44;1053746;28;638;-67
2022/12/28 04:08:42;;;;;;;;;;;;;;;12.42;74.76;100734.19;1052637;28;712;-67
2022/12/28 04:09:33;;;;;;;;;;;;;;;12.41;74.62;100727.13;1054308;28;1153;-67
2022/12/28 04:10:23;;;;;;;;;;;;;;;12.39;74.44;100723.72;1053177;28;629;-67
2022/12/28 04:11:13;;;;;;;;;;;;;;;12.39;73.88;100719.22;1055353;28;1712;-67
2022/12/28 04:12:04;;;;;;;;;;;;;;;12.39;74.14;100721.06;1056445;28;689;-67
2022/12/28 04:12:55;;;;;;;;;;;;;;;12.38;74.92;100728.22;1053522;28;696;-67
2022/12/28 04:13:45;;;;;;;;;;;;;;;12.38;74.25;100722.00;1056165;28;1052;-67
2022/12/28 04:14:36;;;;;;;;;;;;;;;12.39;74.84;100721.06;1056468;28;727;-68
2022/12/28 04:15:26;;;;;;;;;;;;;;;12.41;74.24;100717.31;1056192;28;625;-68
2022/12/28 04:16:17;;;;;;;;;;;;;;;12.41;74.12;100728.00;1055659;28;1567;-67
2022/12/28 04:17:07;;;;;;;;;;;;;;;12.40;73.87;100718.25;1056498;28;1130;-67
2022/12/28 04:17:57;;;;;;;;;;;;;;;12.40;73.98;100709.41;1057334;28;701;-67
2022/12/28 04:18:48;;;;;;;;;;;;;;;12.41;74.05;100711.09;1055935;28;1979;-67
2022/12/28 04:19:38;;;;;;;;;;;;;;;12.40;73.73;100709.41;1056630;28;719;-68
2022/12/28 04:20:29;;;;;;;;;;;;;;;12.41;74.47;100705.75;1056372;28;667;-67
2022/12/28 04:21:19;;;;;;;;;;;;;;;12.38;74.34;100701.50;1054703;28;1587;-67
2022/12/28 04:22:10;;;;;;;;;;;;;;;12.38;74.41;100706.84;1055564;28;715;-67
2022/12/28 04:23:00;;;;;;;;;;;;;;;12.40;73.72;100698.72;1054863;28;1094;-67
2022/12/28 04:23:51;;;;;;;;;;;;;;;12.41;74.43;100695.91;1055779;28;629;-67
2022/12/28 04:24:41;;;;;;;;;;;;;;;12.41;74.65;100705.75;1055351;28;662;-68
2022/12/28 04:25:31;;;;;;;;;;;;;;;12.39;73.67;100689.84;1055578;28;642;-67
2022/12/28 04:26:22;;;;;;;;;;;;;;;12.39;74.23;100718.38;1052178;28;1548;-66
2022/12/28 04:27:12;;;;;;;;;;;;;;;12.40;74.10;100706.72;1054946;28;1147;-67
2022/12/28 04:28:03;;;;;;;;;;;;;;;12.40;74.46;100693.34;1056092;28;1662;-67
2022/12/28 04:28:53;;;;;;;;;;;;;;;12.39;73.97;100697.00;1055769;28;1118;-67
2022/12/28 04:29:43;;;;;;;;;;;;;;;12.40;73.97;100693.34;1052629;28;1743;-68
2022/12/28 04:30:34;;;;;;;;;;;;;;;12.39;73.65;100702.34;1054520;28;1213;-67
2022/12/28 04:31:24;;;;;;;;;;;;;;;12.40;74.54;100720.09;1056179;28;696;-67
2022/12/28 04:32:15;;;;;;;;;;;;;;;12.40;73.64;100704.06;1054510;28;740;-67
2022/12/28 04:33:05;;;;;;;;;;;;;;;12.38;74.52;100690.81;1051843;28;744;-67
2022/12/28 04:33:56;;;;;;;;;;;;;;;12.38;74.67;100700.63;1052079;28;705;-67
2022/12/28 04:34:46;;;;;;;;;;;;;;;12.39;74.38;100702.34;1051225;28;1549;-68
2022/12/28 04:35:37;;;;;;;;;;;;;;;12.39;74.36;100695.19;1051947;28;1119;-68
2022/12/28 04:36:27;;;;;;;;;;;;;;;12.39;74.12;100705.00;1055409;28;635;-68
2022/12/28 04:37:17;;;;;;;;;;;;;;;12.39;74.52;100687.16;1057220;28;713;-68
2022/12/28 04:38:08;;;;;;;;;;;;;;;12.37;74.41;100689.09;1052050;28;663;-68
2022/12/28 04:38:58;;;;;;;;;;;;;;;12.36;74.28;100695.41;1053631;28;1953;-68
2022/12/28 04:39:49;;;;;;;;;;;;;;;12.37;73.97;100698.94;1057365;28;727;-68
2022/12/28 04:40:39;;;;;;;;;;;;;;;12.38;74.63;100697.97;1053731;28;1094;-68
2022/12/28 04:41:29;;;;;;;;;;;;;;;12.38;73.68;100695.28;1052536;28;708;-68
2022/12/28 04:42:20;;;;;;;;;;;;;;;12.37;74.12;100704.28;1053251;28;645;-68
2022/12/28 04:43:10;;;;;;;;;;;;;;;12.38;74.42;100692.63;1052407;28;701;-68
2022/12/28 04:44:01;;;;;;;;;;;;;;;12.36;74.07;100692.72;1055536;28;1091;-67
2022/12/28 04:44:51;;;;;;;;;;;;;;;12.38;74.20;100689.94;1055399;28;1015;-68
2022/12/28 04:45:41;;;;;;;;;;;;;;;12.37;74.53;100688.25;1053822;28;1578;-67
2022/12/28 04:46:32;;;;;;;;;;;;;;;12.38;74.59;100688.13;1053729;28;692;-68
2022/12/28 04:47:22;;;;;;;;;;;;;;;12.38;73.76;100688.13;1051917;28;1516;-68
2022/12/28 04:48:13;;;;;;;;;;;;;;;12.37;74.53;100688.25;1051534;28;697;-68
2022/12/28 04:49:03;;;;;;;;;;;;;;;12.38;74.81;100679.25;1056138;28;850;-67
2022/12/28 04:49:54;;;;;;;;;;;;;;;12.39;74.61;100680.97;1054764;28;1600;-68
2022/12/28 04:50:44;;;;;;;;;;;;;;;12.38;74.71;100681.94;1052451;28;640;-67
2022/12/28 04:51:35;;;;;;;;;;;;;;;12.37;74.20;100678.41;1055855;28;747;-67